Time;durP1;ratioP1;P1;durP2;ratioP2;P2;SDS_P1;SDS_P2;PMS_P1;PMS_P2;Temp;Humidity;BMP_temperature;BMP_pressure;BME280_temperature;BME280_humidity;BME280_pressure;Samples;Min_cycle;Max_cycle;Signal;HPM_P1;HPM_P2
2023/06/25 05:02:16;;;;;;;9.88;6.32;;;18.00;93.60;;;;;;5595990;23;20057;-71
2023/06/25 05:04:42;;;;;;;9.95;6.07;;;18.10;93.20;;;;;;5022146;28;20314;-71
2023/06/25 05:07:08;;;;;;;10.70;6.40;;;18.20;93.10;;;;;;5006246;28;20022;-71
2023/06/25 05:09:34;;;;;;;8.95;6.88;;;18.30;93.30;;;;;;4988365;28;20069;-71
2023/06/25 05:12:00;;;;;;;16.70;11.65;;;18.30;93.60;;;;;;5022686;28;20026;-71
2023/06/25 05:14:27;;;;;;;8.82;6.53;;;18.40;93.60;;;;;;5022904;28;20038;-72
2023/06/25 05:16:52;;;;;;;11.40;8.48;;;18.50;93.40;;;;;;5022103;28;20033;-71
2023/06/25 05:19:19;;;;;;;9.68;6.75;;;18.50;93.60;;;;;;5022325;28;20092;-71
2023/06/25 05:21:44;;;;;;;10.57;6.63;;;18.60;93.40;;;;;;5021977;28;20050;-71
2023/06/25 05:24:10;;;;;;;9.88;6.07;;;18.70;92.90;;;;;;5022879;28;20033;-70
2023/06/25 05:26:36;;;;;;;8.60;5.40;;;18.70;92.90;;;;;;5016857;28;20034;-71
2023/06/25 05:29:02;;;;;;;8.13;5.55;;;18.80;92.70;;;;;;5022115;28;20101;-71
2023/06/25 05:31:29;;;;;;;8.40;5.63;;;18.80;92.00;;;;;;5022468;28;20038;-71
2023/06/25 05:33:54;;;;;;;8.07;5.82;;;18.90;92.00;;;;;;5021714;28;20069;-71
2023/06/25 05:36:24;;;;;;;9.75;5.32;;;19.00;92.30;;;;;;5004594;28;20041;-71
2023/06/25 05:38:49;;;;;;;8.20;5.65;;;19.10;91.80;;;;;;5021958;28;20085;-70
2023/06/25 05:41:15;;;;;;;8.63;6.10;;;19.30;91.10;;;;;;5026133;28;20034;-71
2023/06/25 05:43:41;;;;;;;13.68;10.25;;;19.40;91.30;;;;;;5025671;28;20219;-71
2023/06/25 05:46:11;;;;;;;8.55;5.63;;;19.40;91.00;;;;;;5026076;28;20077;-71
2023/06/25 05:48:38;;;;;;;6.55;4.90;;;19.50;90.70;;;;;;5012720;28;20054;-71
2023/06/25 05:51:04;;;;;;;7.00;4.90;;;19.60;90.60;;;;;;5006537;28;20061;-70
2023/06/25 05:53:38;;;;;;;7.63;5.05;;;19.70;89.50;;;;;;5000497;28;20093;-71
2023/06/25 05:56:04;;;;;;;6.88;4.75;;;19.90;89.00;;;;;;5005918;28;20033;-71
2023/06/25 05:58:30;;;;;;;6.28;4.50;;;20.00;88.30;;;;;;5006025;28;20139;-71
2023/06/25 06:00:56;;;;;;;6.93;4.53;;;20.10;87.60;;;;;;5004929;28;20045;-71
2023/06/25 06:03:21;;;;;;;6.93;4.55;;;20.20;87.00;;;;;;5006473;28;20077;-71
2023/06/25 06:05:47;;;;;;;10.23;4.55;;;20.30;86.00;;;;;;5005672;28;20070;-70
2023/06/25 06:08:13;;;;;;;6.95;4.28;;;20.40;85.10;;;;;;5008952;28;20034;-70
2023/06/25 06:10:39;;;;;;;7.35;4.60;;;20.50;83.90;;;;;;5020161;28;20026;-71
2023/06/25 06:13:05;;;;;;;8.48;4.72;;;20.60;83.30;;;;;;5025289;28;20080;-71
2023/06/25 06:15:30;;;;;;;6.35;4.57;;;20.70;82.30;;;;;;5025333;28;20303;-73
2023/06/25 06:17:56;;;;;;;8.35;5.07;;;20.80;81.30;;;;;;5024731;28;20034;-72
2023/06/25 06:20:22;;;;;;;7.63;5.30;;;20.80;80.50;;;;;;5025348;28;20037;-71
2023/06/25 06:22:47;;;;;;;7.68;5.30;;;21.00;80.40;;;;;;5007482;28;20021;-71
2023/06/25 06:25:13;;;;;;;7.20;4.60;;;21.10;80.60;;;;;;5007582;28;20076;-70
2023/06/25 06:27:39;;;;;;;8.32;4.88;;;21.30;80.50;;;;;;5025174;28;20053;-70
2023/06/25 06:30:06;;;;;;;8.48;5.15;;;21.40;79.80;;;;;;5011617;28;20031;-70
2023/06/25 06:32:32;;;;;;;7.40;5.30;;;21.50;79.60;;;;;;4991560;28;20026;-71
2023/06/25 06:34:57;;;;;;;7.15;4.93;;;21.60;79.50;;;;;;5005182;28;20032;-70
2023/06/25 06:37:23;;;;;;;8.70;5.25;;;21.70;79.30;;;;;;5005082;28;20325;-70
2023/06/25 06:39:49;;;;;;;7.47;4.45;;;21.70;78.90;;;;;;5004805;28;20034;-71
2023/06/25 06:42:14;;;;;;;6.03;4.25;;;21.80;78.50;;;;;;5005552;28;20034;-70
2023/06/25 06:44:40;;;;;;;6.28;4.20;;;21.90;78.10;;;;;;5005164;28;20053;-70
2023/06/25 06:47:06;;;;;;;7.93;4.57;;;22.00;78.00;;;;;;5004478;28;20091;-70
2023/06/25 06:49:31;;;;;;;8.02;4.93;;;22.10;77.60;;;;;;5004894;28;20041;-70
2023/06/25 06:51:57;;;;;;;7.40;5.32;;;22.30;76.70;;;;;;5003622;28;20034;-71
2023/06/25 06:54:23;;;;;;;11.15;7.85;;;22.40;76.30;;;;;;5004851;28;20034;-71
2023/06/25 06:56:48;;;;;;;7.45;5.80;;;22.50;76.40;;;;;;5004520;28;20098;-70
2023/06/25 06:59:14;;;;;;;11.80;9.23;;;22.60;75.30;;;;;;5005263;28;20354;-70
2023/06/25 07:01:40;;;;;;;8.45;4.70;;;22.70;75.20;;;;;;5004737;28;20038;-70
2023/06/25 07:04:05;;;;;;;13.52;7.45;;;22.80;75.30;;;;;;5004491;28;20034;-72
2023/06/25 07:06:31;;;;;;;8.52;4.80;;;22.80;74.10;;;;;;5004523;28;20030;-71
2023/06/25 07:08:57;;;;;;;5.63;4.32;;;22.90;75.00;;;;;;5004302;28;20030;-72
2023/06/25 07:11:23;;;;;;;6.53;4.63;;;23.10;75.60;;;;;;5013956;28;20045;-71
2023/06/25 07:13:50;;;;;;;7.20;4.78;;;23.20;74.70;;;;;;5023764;28;20033;-71
2023/06/25 07:16:16;;;;;;;7.60;5.00;;;23.40;74.60;;;;;;5024398;28;20030;-73
2023/06/25 07:18:43;;;;;;;7.20;4.95;;;23.50;74.20;;;;;;5024129;28;20254;-71
2023/06/25 07:21:09;;;;;;;7.35;5.00;;;23.40;73.50;;;;;;5023818;28;20028;-74
2023/06/25 07:23:36;;;;;;;7.13;4.72;;;23.40;73.60;;;;;;5023945;28;20080;-73
2023/06/25 07:26:05;;;;;;;7.38;4.82;;;23.50;73.70;;;;;;5023449;28;20064;-74
2023/06/25 07:28:31;;;;;;;6.78;4.78;;;23.40;73.40;;;;;;5024157;28;20064;-73
2023/06/25 07:30:56;;;;;;;6.25;4.53;;;23.50;73.30;;;;;;5021894;28;20034;-74
2023/06/25 07:33:22;;;;;;;8.52;4.97;;;23.50;73.40;;;;;;5004824;28;20196;-70
2023/06/25 07:35:48;;;;;;;6.72;4.75;;;23.60;73.10;;;;;;5004140;28;20097;-74
2023/06/25 07:38:13;;;;;;;6.40;4.65;;;23.60;73.20;;;;;;5004033;28;20042;-74
2023/06/25 07:40:39;;;;;;;6.93;4.55;;;23.70;73.60;;;;;;5004425;28;20022;-73
2023/06/25 07:43:05;;;;;;;7.13;4.60;;;23.90;73.40;;;;;;5003332;28;20061;-72
2023/06/25 07:45:31;;;;;;;6.40;4.40;;;23.90;72.40;;;;;;4986810;28;20022;-71
2023/06/25 07:47:56;;;;;;;8.90;5.22;;;24.00;72.10;;;;;;5003707;28;20037;-73
2023/06/25 07:50:22;;;;;;;8.18;5.40;;;24.10;71.60;;;;;;5004267;28;20327;-72
2023/06/25 07:52:48;;;;;;;7.82;4.82;;;24.20;71.20;;;;;;5006846;28;20316;-73
2023/06/25 07:55:14;;;;;;;7.13;4.93;;;24.30;70.50;;;;;;5003629;28;20037;-72
2023/06/25 07:57:40;;;;;;;6.40;4.80;;;24.30;70.10;;;;;;5006952;28;20034;-74
2023/06/25 08:00:06;;;;;;;9.38;6.00;;;24.40;69.90;;;;;;5010174;28;20065;-73
2023/06/25 08:02:38;;;;;;;8.90;6.75;;;24.50;69.90;;;;;;5002816;28;20120;-73
2023/06/25 08:05:04;;;;;;;8.50;5.28;;;24.70;69.80;;;;;;5002892;28;20304;-73
2023/06/25 08:07:30;;;;;;;7.38;4.63;;;24.70;68.60;;;;;;5020291;28;20207;-72
2023/06/25 08:09:56;;;;;;;7.93;5.22;;;24.80;68.50;;;;;;5014753;28;20015;-73
2023/06/25 08:12:21;;;;;;;8.68;5.70;;;25.00;68.00;;;;;;4986119;28;20049;-73
2023/06/25 08:14:47;;;;;;;7.70;5.82;;;25.10;68.30;;;;;;5016347;28;20030;-75
2023/06/25 08:17:13;;;;;;;6.90;5.30;;;25.30;68.20;;;;;;5003479;28;20230;-73
2023/06/25 08:19:39;;;;;;;7.57;5.05;;;25.30;66.70;;;;;;5003572;28;20061;-73
2023/06/25 08:22:05;;;;;;;7.28;5.55;;;25.40;67.10;;;;;;5003099;28;20219;-72
2023/06/25 08:24:30;;;;;;;11.73;8.77;;;25.50;66.10;;;;;;5003694;28;20042;-75
2023/06/25 08:26:56;;;;;;;8.43;5.90;;;25.50;65.80;;;;;;5002854;28;20098;-73
2023/06/25 08:29:22;;;;;;;9.43;5.40;;;25.60;66.70;;;;;;5003373;28;20041;-72
2023/06/25 08:31:48;;;;;;;8.70;5.32;;;25.70;65.70;;;;;;5009433;28;20036;-74
2023/06/25 08:34:13;;;;;;;10.48;7.70;;;25.70;66.10;;;;;;5012483;28;20029;-73
2023/06/25 08:36:39;;;;;;;9.02;6.78;;;25.80;65.30;;;;;;5003524;28;20311;-73
2023/06/25 08:39:05;;;;;;;11.65;9.45;;;25.90;65.20;;;;;;5002733;28;20041;-71
2023/06/25 08:41:31;;;;;;;8.18;5.68;;;26.10;65.70;;;;;;5006146;28;20127;-72
2023/06/25 08:43:56;;;;;;;8.80;5.80;;;26.20;64.00;;;;;;5002705;28;20044;-71
2023/06/25 08:46:24;;;;;;;8.20;5.93;;;26.20;63.60;;;;;;5003413;28;20072;-72
2023/06/25 08:48:54;;;;;;;8.48;5.93;;;26.30;64.00;;;;;;5002971;28;20030;-73
2023/06/25 08:51:23;;;;;;;12.18;9.80;;;26.50;64.10;;;;;;5003095;28;20045;-71
2023/06/25 08:53:49;;;;;;;7.28;5.72;;;26.70;63.20;;;;;;5005574;28;20121;-73
2023/06/25 08:56:21;;;;;;;12.35;9.75;;;26.50;62.80;;;;;;5003737;28;20034;-72
2023/06/25 08:58:46;;;;;;;7.95;6.18;;;26.50;64.10;;;;;;5003089;28;20046;-72
2023/06/25 09:01:12;;;;;;;7.57;5.60;;;26.60;62.40;;;;;;5002488;28;20046;-73
2023/06/25 09:03:40;;;;;;;7.97;6.15;;;26.70;62.70;;;;;;5003570;28;20050;-72
2023/06/25 09:06:12;;;;;;;8.60;5.47;;;26.80;62.10;;;;;;5009402;28;20028;-73
2023/06/25 09:08:40;;;;;;;8.10;4.93;;;26.90;60.30;;;;;;5023011;28;20038;-72
2023/06/25 09:11:06;;;;;;;7.17;4.90;;;27.00;59.90;;;;;;5005101;28;20021;-71
2023/06/25 09:13:31;;;;;;;7.55;5.28;;;27.10;59.40;;;;;;5002962;28;20273;-72
2023/06/25 09:16:02;;;;;;;8.65;5.47;;;26.90;60.90;;;;;;5008876;28;20022;-73
2023/06/25 09:18:29;;;;;;;7.75;5.43;;;26.90;61.00;;;;;;4989326;28;20038;-74
2023/06/25 09:20:55;;;;;;;8.73;4.88;;;27.00;60.90;;;;;;5006548;28;20081;-73
2023/06/25 09:23:23;;;;;;;6.78;5.00;;;27.00;60.30;;;;;;5006578;28;20029;-75
2023/06/25 09:25:50;;;;;;;22.30;9.05;;;27.10;60.50;;;;;;5006932;28;20053;-73
2023/06/25 09:28:17;;;;;;;8.77;5.10;;;27.20;61.60;;;;;;5005445;28;20049;-74
2023/06/25 09:30:43;;;;;;;7.03;4.78;;;27.40;60.60;;;;;;5006762;28;20042;-73
2023/06/25 09:33:10;;;;;;;6.90;4.80;;;27.50;60.50;;;;;;5009066;28;20022;-72
2023/06/25 09:35:36;;;;;;;6.70;4.90;;;27.50;60.40;;;;;;5006691;28;20291;-72
2023/06/25 09:38:02;;;;;;;7.10;5.30;;;27.50;60.60;;;;;;5005846;28;20034;-71
2023/06/25 09:40:28;;;;;;;6.95;5.03;;;27.60;60.60;;;;;;5006351;28;20069;-72
2023/06/25 09:42:56;;;;;;;6.82;4.55;;;27.60;60.20;;;;;;4988353;28;20053;-71
2023/06/25 09:45:23;;;;;;;7.95;4.78;;;27.80;59.60;;;;;;5006491;28;20181;-71
2023/06/25 09:47:51;;;;;;;6.95;5.20;;;27.70;59.70;;;;;;5006165;28;20038;-73
2023/06/25 09:50:19;;;;;;;7.20;5.03;;;27.80;58.50;;;;;;5005668;28;20034;-74
2023/06/25 09:52:55;;;;;;;6.37;4.57;;;27.80;58.90;;;;;;5007290;28;20240;-73
2023/06/25 09:55:21;;;;;;;6.72;4.93;;;28.00;59.00;;;;;;4988837;28;20488;-71
2023/06/25 09:57:51;;;;;;;7.90;4.95;;;28.10;58.30;;;;;;5005937;28;20049;-73
2023/06/25 10:00:19;;;;;;;8.55;5.38;;;28.20;58.70;;;;;;4998366;28;20224;-73
2023/06/25 10:02:45;;;;;;;7.30;5.45;;;28.10;58.60;;;;;;5005371;28;20379;-74
2023/06/25 10:05:11;;;;;;;6.28;4.97;;;28.30;58.90;;;;;;5009387;28;20026;-76
2023/06/25 10:07:38;;;;;;;6.47;5.13;;;28.40;58.80;;;;;;5020781;28;20080;-76
2023/06/25 10:10:04;;;;;;;6.78;4.82;;;28.40;58.80;;;;;;5005203;28;20027;-72
2023/06/25 10:12:35;;;;;;;6.82;4.80;;;28.20;57.70;;;;;;5005775;28;20029;-74
2023/06/25 10:15:04;;;;;;;8.18;5.30;;;28.10;58.90;;;;;;5003896;28;20077;-73
2023/06/25 10:17:29;;;;;;;7.60;5.45;;;28.10;58.50;;;;;;5011504;28;20079;-72
2023/06/25 10:19:57;;;;;;;8.63;5.75;;;28.30;59.60;;;;;;5025094;28;20053;-77
2023/06/25 10:22:24;;;;;;;7.47;5.57;;;28.50;60.50;;;;;;5025702;28;20021;-73
2023/06/25 10:24:51;;;;;;;9.18;6.07;;;28.60;59.80;;;;;;5025225;28;20335;-75
2023/06/25 10:27:24;;;;;;;7.30;5.20;;;28.70;60.00;;;;;;5023641;28;20037;-74
2023/06/25 10:29:51;;;;;;;10.25;5.80;;;28.70;59.50;;;;;;5025258;28;20255;-74
2023/06/25 10:32:24;;;;;;;7.75;5.30;;;28.80;59.80;;;;;;5024977;28;20057;-76
2023/06/25 10:34:54;;;;;;;8.82;5.80;;;29.00;59.10;;;;;;5025024;28;20045;-77
2023/06/25 10:37:20;;;;;;;7.78;5.63;;;29.30;59.20;;;;;;5024373;28;20080;-75
2023/06/25 10:39:46;;;;;;;8.73;6.10;;;29.10;59.00;;;;;;5024827;28;20025;-74
2023/06/25 10:42:13;;;;;;;9.80;5.88;;;29.20;59.60;;;;;;5022951;28;20029;-73
2023/06/25 10:44:40;;;;;;;7.93;5.70;;;29.20;59.40;;;;;;5015749;28;20212;-75
2023/06/25 10:47:08;;;;;;;8.02;5.38;;;29.30;59.60;;;;;;5010446;28;20037;-75
2023/06/25 10:49:34;;;;;;;;;;;29.40;59.10;;;;;;5024284;28;20286;-75
2023/06/25 10:52:01;;;;;;;9.50;5.68;;;29.40;59.70;;;;;;5020083;28;19909;-73
2023/06/25 10:54:27;;;;;;;7.57;5.57;;;29.40;59.60;;;;;;5005370;28;20037;-72
2023/06/25 10:57:06;;;;;;;9.15;6.18;;;29.60;59.20;;;;;;5004901;28;20093;-73
2023/06/25 10:59:32;;;;;;;8.27;5.72;;;29.50;59.30;;;;;;5007797;28;20049;-72
2023/06/25 11:02:19;;;;;;;8.52;6.10;;;29.50;59.00;;;;;;5022992;28;20101;-71
2023/06/25 11:04:56;;;;;;;9.02;5.47;;;29.60;59.90;;;;;;5024638;28;20025;-73
2023/06/25 11:07:23;;;;;;;6.75;5.43;;;29.70;58.80;;;;;;5019642;28;20252;-72
2023/06/25 11:09:59;;;;;;;7.88;5.93;;;29.70;58.80;;;;;;5010487;28;20037;-72
2023/06/25 11:12:26;;;;;;;7.50;5.63;;;29.80;58.20;;;;;;5024527;28;20057;-71
2023/06/25 11:14:52;;;;;;;7.63;6.00;;;30.00;57.90;;;;;;5024284;28;20026;-73
2023/06/25 11:17:18;;;;;;;7.70;5.40;;;30.10;58.50;;;;;;5014832;28;20034;-73
2023/06/25 11:19:50;;;;;;;6.70;5.32;;;30.20;58.00;;;;;;5004838;28;20028;-73
2023/06/25 11:22:16;;;;;;;6.68;5.28;;;30.50;58.00;;;;;;5004159;28;20065;-74
2023/06/25 11:24:42;;;;;;;6.82;5.03;;;30.60;57.70;;;;;;5004609;28;20097;-72
2023/06/25 11:27:08;;;;;;;15.13;11.55;;;30.70;57.00;;;;;;5003851;28;20340;-71
2023/06/25 11:29:38;;;;;;;8.18;6.85;;;30.90;56.30;;;;;;5003729;28;20262;-74
2023/06/25 11:32:08;;;;;;;10.00;7.85;;;30.90;55.50;;;;;;5003644;28;20316;-72
2023/06/25 11:34:34;;;;;;;8.82;6.13;;;31.00;55.80;;;;;;5004098;28;20332;-73
2023/06/25 11:37:14;;;;;;;8.15;5.68;;;31.20;55.50;;;;;;5002359;28;20263;-73
2023/06/25 11:39:46;;;;;;;7.28;5.30;;;31.40;55.80;;;;;;5003899;28;20259;-73
2023/06/25 11:42:14;;;;;;;8.70;5.50;;;31.70;55.50;;;;;;5003946;28;20034;-75
2023/06/25 11:44:39;;;;;;;7.70;5.93;;;32.20;57.60;;;;;;5003927;28;20028;-75
2023/06/25 11:47:05;;;;;;;7.70;6.05;;;32.70;58.70;;;;;;5003684;28;20220;-74
2023/06/25 11:49:31;;;;;;;7.78;6.40;;;33.20;59.00;;;;;;5003844;28;20057;-74
2023/06/25 11:51:58;;;;;;;6.88;5.07;;;33.60;61.00;;;;;;5004020;28;20031;-75
2023/06/25 11:54:24;;;;;;;6.40;5.68;;;34.60;62.30;;;;;;5003037;28;20231;-74
2023/06/25 11:56:50;;;;;;;5.68;5.10;;;35.80;53.10;;;;;;5003599;28;20048;-72
2023/06/25 11:59:15;;;;;;;5.60;5.00;;;36.80;53.20;;;;;;5002953;28;20053;-73
2023/06/25 12:01:41;;;;;;;7.13;5.40;;;37.20;54.10;;;;;;5002354;28;20352;-73
2023/06/25 12:04:07;;;;;;;6.82;5.47;;;38.00;53.70;;;;;;4986017;28;20073;-73
2023/06/25 12:06:34;;;;;;;6.00;5.40;;;38.60;53.90;;;;;;5013392;28;20350;-73
2023/06/25 12:08:59;;;;;;;5.75;5.15;;;38.40;55.40;;;;;;5022310;28;20105;-74
2023/06/25 12:11:25;;;;;;;6.45;5.50;;;38.80;60.20;;;;;;5023001;28;20191;-75
2023/06/25 12:13:51;;;;;;;5.95;5.35;;;38.40;43.00;;;;;;5022083;28;20029;-74
2023/06/25 12:16:16;;;;;;;6.25;4.78;;;38.90;40.90;;;;;;5022555;28;20033;-74
2023/06/25 12:18:42;;;;;;;5.88;5.28;;;39.10;40.20;;;;;;5023313;28;20040;-74
2023/06/25 12:21:08;;;;;;;5.78;4.93;;;39.80;39.90;;;;;;5017265;28;20031;-74
2023/06/25 12:23:33;;;;;;;7.45;5.32;;;39.40;39.70;;;;;;5003682;28;20034;-73
2023/06/25 12:25:59;;;;;;;5.55;4.68;;;39.80;39.50;;;;;;5002410;28;20224;-75
2023/06/25 12:28:25;;;;;;;6.00;5.05;;;40.80;39.70;;;;;;5003038;28;20097;-74
2023/06/25 12:30:51;;;;;;;5.72;5.13;;;41.90;39.50;;;;;;5003298;28;20033;-75
2023/06/25 12:33:16;;;;;;;5.95;5.35;;;42.90;38.40;;;;;;5001911;28;20034;-73
2023/06/25 12:35:42;;;;;;;5.13;4.63;;;42.80;38.00;;;;;;5003436;28;20020;-74
2023/06/25 12:38:08;;;;;;;5.63;5.07;;;43.30;38.20;;;;;;5001650;28;20054;-73
2023/06/25 12:40:33;;;;;;;5.93;5.13;;;43.70;37.50;;;;;;5001959;28;20334;-72
2023/06/25 12:42:59;;;;;;;9.02;5.22;;;43.50;37.60;;;;;;5003128;28;20034;-74
2023/06/25 12:45:26;;;;;;;5.43;4.85;;;42.80;37.60;;;;;;5001253;28;20058;-74
2023/06/25 12:47:51;;;;;;;6.85;4.78;;;43.00;37.20;;;;;;5003152;28;20038;-72
2023/06/25 12:50:18;;;;;;;5.68;4.80;;;43.40;37.40;;;;;;5004125;28;20039;-73
2023/06/25 12:52:44;;;;;;;5.35;4.75;;;43.70;36.50;;;;;;5007421;28;20030;-72
2023/06/25 12:55:10;;;;;;;6.28;5.68;;;44.10;37.10;;;;;;5006950;28;20368;-74
2023/06/25 12:57:36;;;;;;;6.20;4.80;;;44.40;36.70;;;;;;5006957;28;20038;-72
2023/06/25 13:00:05;;;;;;;5.38;4.88;;;45.10;36.50;;;;;;5007406;28;20080;-73
2023/06/25 13:02:31;;;;;;;5.22;4.72;;;44.40;36.80;;;;;;5006978;28;20046;-72
2023/06/25 13:04:57;;;;;;;12.25;11.13;;;44.60;36.20;;;;;;5006065;28;20093;-72
2023/06/25 13:07:23;;;;;;;6.27;5.67;;;44.90;35.80;;;;;;5006776;28;20319;-72
2023/06/25 13:09:49;;;;;;;5.43;4.70;;;45.20;35.80;;;;;;5006582;28;20026;-74
2023/06/25 13:12:15;;;;;;;6.43;5.87;;;44.70;35.60;;;;;;5006257;28;20158;-73
2023/06/25 13:14:43;;;;;;;7.47;6.77;;;44.40;36.00;;;;;;5006950;28;20034;-72
2023/06/25 13:17:10;;;;;;;8.45;5.18;;;44.90;35.80;;;;;;5006150;28;20034;-72
2023/06/25 13:19:38;;;;;;;5.97;5.35;;;44.70;35.70;;;;;;5006827;28;20030;-73
2023/06/25 13:22:04;;;;;;;5.82;5.28;;;45.10;35.80;;;;;;5007226;28;20049;-72
2023/06/25 13:24:31;;;;;;;5.80;5.20;;;45.50;35.70;;;;;;5005292;28;20022;-72
2023/06/25 13:26:56;;;;;;;5.15;4.65;;;47.10;35.30;;;;;;5006907;28;20034;-72
2023/06/25 13:29:22;;;;;;;5.40;4.90;;;47.70;34.60;;;;;;5005898;28;20046;-72
2023/06/25 13:31:49;;;;;;;6.83;4.90;;;47.80;34.40;;;;;;5023793;28;20040;-71
2023/06/25 13:34:15;;;;;;;5.65;5.15;;;47.10;34.30;;;;;;5025519;28;20205;-72
2023/06/25 13:36:40;;;;;;;5.40;4.83;;;45.40;34.40;;;;;;5026298;28;20042;-72
2023/06/25 13:39:06;;;;;;;5.23;4.77;;;44.30;34.60;;;;;;5026199;28;20033;-73
2023/06/25 13:41:32;;;;;;;5.53;5.03;;;44.20;35.40;;;;;;5025400;28;20029;-74
2023/06/25 13:43:57;;;;;;;5.50;4.90;;;44.30;35.50;;;;;;5012459;28;20228;-74
2023/06/25 13:46:23;;;;;;;5.23;4.73;;;44.50;35.10;;;;;;5006239;28;20034;-74
2023/06/25 13:48:49;;;;;;;5.03;4.53;;;45.60;34.30;;;;;;5006116;28;20026;-72
2023/06/25 13:51:15;;;;;;;4.97;4.57;;;46.90;34.50;;;;;;5009208;28;20018;-72
2023/06/25 13:53:42;;;;;;;5.63;5.00;;;46.70;34.20;;;;;;5005288;28;20358;-73
2023/06/25 13:56:08;;;;;;;5.00;4.50;;;47.20;34.20;;;;;;5004601;28;20037;-72
2023/06/25 13:58:36;;;;;;;5.18;4.60;;;47.10;34.50;;;;;;5006270;28;20045;-72
2023/06/25 14:01:03;;;;;;;4.85;4.35;;;47.10;34.00;;;;;;5005592;28;20061;-73
2023/06/25 14:03:32;;;;;;;5.50;4.95;;;46.70;33.70;;;;;;5005968;28;20058;-72
2023/06/25 14:05:59;;;;;;;5.30;4.80;;;45.80;33.80;;;;;;5005634;28;20023;-73
2023/06/25 14:08:24;;;;;;;;;;;45.90;34.00;;;;;;5009062;28;20057;-72
2023/06/25 14:10:50;;;;;;;5.55;4.85;;;45.20;33.80;;;;;;5006006;28;19917;-73
2023/06/25 14:13:19;;;;;;;5.60;5.10;;;46.70;34.50;;;;;;5005680;28;20233;-72
2023/06/25 14:15:45;;;;;;;5.30;4.90;;;46.70;33.60;;;;;;5004852;28;20084;-73
2023/06/25 14:18:11;;;;;;;5.15;4.65;;;47.50;33.30;;;;;;5005124;28;20038;-73
2023/06/25 14:20:37;;;;;;;4.75;4.35;;;47.10;33.70;;;;;;5005977;28;20038;-73
2023/06/25 14:23:02;;;;;;;5.03;4.53;;;48.20;33.60;;;;;;5005954;28;20022;-73
2023/06/25 14:25:28;;;;;;;5.93;4.97;;;49.30;33.30;;;;;;5008832;28;20056;-73
2023/06/25 14:27:54;;;;;;;5.43;4.78;;;49.70;33.60;;;;;;5005420;28;20065;-73
2023/06/25 14:30:20;;;;;;;5.50;4.90;;;50.10;32.50;;;;;;5005322;28;20320;-73
2023/06/25 14:32:46;;;;;;;5.90;4.97;;;49.00;32.50;;;;;;5005340;28;20031;-73
2023/06/25 14:35:13;;;;;;;5.63;4.90;;;48.60;32.30;;;;;;5004746;28;20061;-73
2023/06/25 14:37:38;;;;;;;5.40;4.65;;;46.90;32.50;;;;;;5005489;28;20061;-74
2023/06/25 14:40:05;;;;;;;5.27;4.73;;;46.50;33.40;;;;;;5005463;28;20081;-73
2023/06/25 14:42:30;;;;;;;4.78;4.35;;;46.70;33.10;;;;;;5006193;28;20053;-73
2023/06/25 14:44:58;;;;;;;5.10;4.53;;;46.80;32.80;;;;;;5024998;28;20026;-73
2023/06/25 14:47:24;;;;;;;5.45;4.90;;;47.30;32.80;;;;;;5010837;28;20042;-74
2023/06/25 14:49:50;;;;;;;6.60;5.40;;;47.90;33.10;;;;;;5005521;28;20073;-74
2023/06/25 14:52:15;;;;;;;6.40;5.75;;;47.50;32.90;;;;;;5004822;28;20038;-73
2023/06/25 14:54:41;;;;;;;5.22;4.72;;;47.70;32.60;;;;;;5005295;28;20038;-73
2023/06/25 14:57:07;;;;;;;4.97;4.47;;;47.00;32.40;;;;;;5004195;28;20025;-74
2023/06/25 14:59:32;;;;;;;5.30;4.80;;;47.90;32.70;;;;;;5004792;28;20339;-73
2023/06/25 15:01:58;;;;;;;5.80;4.95;;;49.00;32.60;;;;;;5004988;28;20061;-72
2023/06/25 15:04:24;;;;;;;5.13;4.57;;;49.20;32.30;;;;;;5004192;28;20366;-73
2023/06/25 15:06:50;;;;;;;5.03;4.53;;;50.00;32.20;;;;;;5007811;28;20643;-72
2023/06/25 15:09:15;;;;;;;5.15;4.65;;;49.30;32.10;;;;;;5003344;28;20457;-73
2023/06/25 15:11:43;;;;;;;5.00;4.55;;;50.00;32.00;;;;;;5004217;28;20102;-73
2023/06/25 15:14:08;;;;;;;5.30;4.80;;;50.30;31.70;;;;;;5004666;28;20199;-73
2023/06/25 15:16:34;;;;;;;5.28;4.50;;;50.50;31.70;;;;;;5003187;28;20068;-73
2023/06/25 15:19:00;;;;;;;5.93;5.43;;;49.70;31.60;;;;;;5004547;28;20331;-73
2023/06/25 15:21:26;;;;;;;4.80;4.30;;;48.30;31.90;;;;;;5004340;28;20267;-73
2023/06/25 15:23:51;;;;;;;5.22;4.55;;;48.80;31.80;;;;;;5004724;28;20029;-72
2023/06/25 15:26:17;;;;;;;4.90;4.50;;;47.90;31.80;;;;;;5004323;28;20240;-73
2023/06/25 15:28:44;;;;;;;4.40;3.97;;;47.40;32.40;;;;;;5007920;28;20460;-72
2023/06/25 15:31:09;;;;;;;;;;;47.40;32.40;;;;;;5004709;28;20421;-74
2023/06/25 15:33:35;;;;;;;;;;;48.10;32.20;;;;;;5004061;28;19913;-73
2023/06/25 15:36:00;;;;;;;4.50;4.10;;;48.30;31.80;;;;;;5004150;28;19972;-73
2023/06/25 15:38:26;;;;;;;4.53;4.13;;;48.10;31.70;;;;;;5003798;28;20364;-72
2023/06/25 15:40:52;;;;;;;4.77;4.37;;;48.60;32.50;;;;;;5004121;28;20426;-72
2023/06/25 15:43:18;;;;;;;5.18;4.68;;;49.20;31.50;;;;;;5011123;28;20038;-72
2023/06/25 15:45:44;;;;;;;4.80;4.35;;;50.60;31.60;;;;;;5024093;28;20025;-73
2023/06/25 15:48:09;;;;;;;4.60;4.20;;;51.10;31.00;;;;;;5021053;28;20033;-72
2023/06/25 15:50:39;;;;;;;4.95;4.55;;;49.50;30.60;;;;;;5018889;28;20042;-72
2023/06/25 15:53:05;;;;;;;4.78;4.30;;;48.40;31.80;;;;;;5004022;28;20077;-73
2023/06/25 15:55:31;;;;;;;4.78;4.38;;;48.60;31.70;;;;;;5003762;28;20030;-73
2023/06/25 15:57:58;;;;;;;4.65;4.25;;;48.30;31.40;;;;;;5003701;28;20052;-73
2023/06/25 16:00:23;;;;;;;4.90;4.40;;;48.40;32.00;;;;;;5002970;28;20041;-72
2023/06/25 16:02:49;;;;;;;5.07;4.22;;;48.00;31.90;;;;;;5003401;28;20050;-74
2023/06/25 16:05:15;;;;;;;5.07;4.57;;;47.70;31.80;;;;;;5003870;28;20311;-74
2023/06/25 16:07:41;;;;;;;4.93;4.50;;;47.00;32.20;;;;;;5013335;28;20068;-74
2023/06/25 16:10:07;;;;;;;4.95;4.45;;;45.80;32.50;;;;;;5023320;28;20053;-73
2023/06/25 16:12:33;;;;;;;33.00;12.00;;;47.20;33.40;;;;;;5022509;28;20038;-74
2023/06/25 16:14:58;;;;;;;37.03;17.10;;;47.90;31.80;;;;;;5023093;28;20029;-73
2023/06/25 16:17:25;;;;;;;65.40;32.70;;;47.90;32.10;;;;;;5021896;28;20117;-73
2023/06/25 16:19:50;;;;;;;106.70;51.88;;;47.70;32.00;;;;;;5023416;28;20045;-73
2023/06/25 16:22:16;;;;;;;9.53;6.93;;;47.50;32.20;;;;;;5023412;28;20215;-72
2023/06/25 16:24:42;;;;;;;8.57;5.97;;;47.90;31.90;;;;;;5013991;28;20033;-73
2023/06/25 16:27:07;;;;;;;10.30;7.20;;;47.40;31.80;;;;;;5003378;28;20033;-72
2023/06/25 16:29:33;;;;;;;6.43;4.80;;;48.20;32.20;;;;;;5003079;28;20037;-73
2023/06/25 16:31:59;;;;;;;6.93;4.67;;;47.40;31.90;;;;;;5003416;28;20061;-73
2023/06/25 16:34:25;;;;;;;5.05;4.55;;;46.80;33.00;;;;;;5003134;28;20291;-73
2023/06/25 16:36:51;;;;;;;5.00;4.57;;;46.70;33.10;;;;;;5003236;28;20026;-73
2023/06/25 16:39:16;;;;;;;5.67;4.37;;;46.10;32.60;;;;;;5002363;28;20316;-73
2023/06/25 16:41:42;;;;;;;5.40;3.83;;;46.50;33.70;;;;;;5003044;28;20089;-74
2023/06/25 16:44:08;;;;;;;4.37;3.97;;;47.40;33.00;;;;;;5015802;28;20085;-73
2023/06/25 16:46:35;;;;;;;5.33;4.83;;;47.00;31.80;;;;;;5006637;28;20082;-73
2023/06/25 16:49:01;;;;;;;5.55;4.90;;;46.40;32.20;;;;;;5003325;28;20041;-74
2023/06/25 16:51:27;;;;;;;5.47;4.93;;;46.00;32.60;;;;;;5003118;28;20026;-74
2023/06/25 16:53:53;;;;;;;5.70;4.53;;;46.10;32.70;;;;;;5003269;28;20223;-73
2023/06/25 16:56:19;;;;;;;5.07;4.57;;;46.40;33.10;;;;;;5003373;28;20060;-73
2023/06/25 16:58:45;;;;;;;5.97;5.03;;;47.50;32.90;;;;;;5003033;28;20037;-73
2023/06/25 17:01:12;;;;;;;;;;;47.60;32.80;;;;;;5003551;28;20034;-74
2023/06/25 17:03:38;;;;;;;4.57;4.18;;;46.40;33.10;;;;;;5002369;28;19977;-73
2023/06/25 17:06:04;;;;;;;4.83;4.40;;;45.60;32.70;;;;;;5006298;28;20049;-73
2023/06/25 17:08:30;;;;;;;5.43;4.90;;;45.40;33.20;;;;;;5002383;28;20320;-74
2023/06/25 17:10:56;;;;;;;4.72;4.20;;;45.80;33.20;;;;;;5003603;28;20077;-74
2023/06/25 17:13:21;;;;;;;10.65;9.65;;;46.40;33.00;;;;;;5002793;28;20037;-72
2023/06/25 17:15:47;;;;;;;7.18;6.07;;;46.70;32.90;;;;;;5003244;28;20037;-73
2023/06/25 17:18:15;;;;;;;5.10;4.60;;;46.60;33.00;;;;;;5002012;28;20033;-74
2023/06/25 17:20:41;;;;;;;5.35;4.85;;;45.50;33.30;;;;;;5001689;28;20033;-73
2023/06/25 17:23:07;;;;;;;5.60;5.03;;;44.30;33.20;;;;;;5003043;28;20073;-74
2023/06/25 17:25:33;;;;;;;5.40;4.65;;;43.80;33.50;;;;;;5001457;28;20018;-74
2023/06/25 17:27:59;;;;;;;5.25;4.75;;;43.90;34.00;;;;;;5006675;28;20236;-74
2023/06/25 17:30:24;;;;;;;6.20;4.80;;;44.00;33.90;;;;;;5002819;28;20022;-74
2023/06/25 17:32:51;;;;;;;5.00;4.45;;;44.50;33.80;;;;;;5003177;28;20034;-75
2023/06/25 17:35:17;;;;;;;5.72;4.85;;;44.50;33.90;;;;;;5003660;28;20030;-74
2023/06/25 17:37:42;;;;;;;5.63;4.88;;;44.20;33.70;;;;;;5006102;28;20106;-76
2023/06/25 17:40:08;;;;;;;5.35;4.85;;;44.40;33.70;;;;;;5006647;28;20030;-75
2023/06/25 17:42:34;;;;;;;4.95;4.45;;;43.90;33.30;;;;;;5008109;28;20137;-73
2023/06/25 17:45:00;;;;;;;8.40;7.60;;;44.20;33.60;;;;;;5025863;28;20038;-75